sensor_id;sensor_type;location;lat;lon;timestamp;P1;durP1;ratioP1;P2;durP2;ratioP2
74941;SDS011;63506;49.346;8.798;2024-02-16T00:01:42;6.45;;;3.10;;
74941;SDS011;63506;49.346;8.798;2024-02-16T00:04:28;4.65;;;2.60;;
74941;SDS011;63506;49.346;8.798;2024-02-16T00:07:13;6.22;;;2.70;;
74941;SDS011;63506;49.346;8.798;2024-02-16T00:10:02;5.82;;;2.83;;
74941;SDS011;63506;49.346;8.798;2024-02-16T00:12:52;4.20;;;2.70;;
74941;SDS011;63506;49.346;8.798;2024-02-16T00:15:38;6.22;;;2.83;;
74941;SDS011;63506;49.346;8.798;2024-02-16T00:18:23;6.45;;;2.83;;
74941;SDS011;63506;49.346;8.798;2024-02-16T00:21:07;3.92;;;2.53;;
74941;SDS011;63506;49.346;8.798;2024-02-16T00:23:56;3.58;;;2.22;;
74941;SDS011;63506;49.346;8.798;2024-02-16T00:26:48;3.55;;;2.53;;
74941;SDS011;63506;49.346;8.798;2024-02-16T00:29:35;3.50;;;2.30;;
74941;SDS011;63506;49.346;8.798;2024-02-16T00:32:24;4.00;;;2.28;;
74941;SDS011;63506;49.346;8.798;2024-02-16T00:35:11;6.85;;;2.72;;
74941;SDS011;63506;49.346;8.798;2024-02-16T00:37:57;7.15;;;2.90;;
74941;SDS011;63506;49.346;8.798;2024-02-16T00:40:41;6.72;;;2.47;;
74941;SDS011;63506;49.346;8.798;2024-02-16T00:43:33;12.25;;;4.32;;
74941;SDS011;63506;49.346;8.798;2024-02-16T00:46:17;9.80;;;3.40;;
74941;SDS011;63506;49.346;8.798;2024-02-16T00:49:04;7.35;;;2.58;;
74941;SDS011;63506;49.346;8.798;2024-02-16T00:51:48;4.63;;;2.75;;
74941;SDS011;63506;49.346;8.798;2024-02-16T00:54:32;5.90;;;3.08;;
74941;SDS011;63506;49.346;8.798;2024-02-16T00:57:16;6.22;;;2.70;;
74941;SDS011;63506;49.346;8.798;2024-02-16T01:00:06;9.75;;;3.17;;
74941;SDS011;63506;49.346;8.798;2024-02-16T01:02:57;7.80;;;2.80;;
74941;SDS011;63506;49.346;8.798;2024-02-16T01:05:44;6.80;;;2.75;;
74941;SDS011;63506;49.346;8.798;2024-02-16T01:08:28;9.45;;;2.67;;
74941;SDS011;63506;49.346;8.798;2024-02-16T01:11:15;5.50;;;2.63;;
74941;SDS011;63506;49.346;8.798;2024-02-16T01:14:02;9.13;;;2.67;;
74941;SDS011;63506;49.346;8.798;2024-02-16T01:16:52;8.63;;;2.53;;
74941;SDS011;63506;49.346;8.798;2024-02-16T01:19:38;5.60;;;2.33;;
74941;SDS011;63506;49.346;8.798;2024-02-16T01:22:27;5.25;;;2.47;;
74941;SDS011;63506;49.346;8.798;2024-02-16T01:25:12;4.53;;;2.90;;
74941;SDS011;63506;49.346;8.798;2024-02-16T01:27:56;8.93;;;3.33;;
74941;SDS011;63506;49.346;8.798;2024-02-16T01:30:41;7.18;;;3.30;;
74941;SDS011;63506;49.346;8.798;2024-02-16T01:33:31;5.22;;;3.30;;
74941;SDS011;63506;49.346;8.798;2024-02-16T01:36:16;12.63;;;3.10;;
74941;SDS011;63506;49.346;8.798;2024-02-16T01:39:01;5.00;;;2.75;;
74941;SDS011;63506;49.346;8.798;2024-02-16T01:41:47;5.00;;;2.80;;
74941;SDS011;63506;49.346;8.798;2024-02-16T01:44:34;3.95;;;2.50;;
74941;SDS011;63506;49.346;8.798;2024-02-16T01:47:20;4.25;;;2.60;;
74941;SDS011;63506;49.346;8.798;2024-02-16T01:50:08;6.50;;;2.70;;
74941;SDS011;63506;49.346;8.798;2024-02-16T01:52:55;5.53;;;2.90;;
74941;SDS011;63506;49.346;8.798;2024-02-16T01:55:42;4.43;;;2.80;;
74941;SDS011;63506;49.346;8.798;2024-02-16T01:58:26;8.10;;;2.35;;
74941;SDS011;63506;49.346;8.798;2024-02-16T02:01:10;8.13;;;2.63;;
74941;SDS011;63506;49.346;8.798;2024-02-16T02:03:57;7.30;;;3.00;;
74941;SDS011;63506;49.346;8.798;2024-02-16T02:06:46;7.25;;;2.92;;
74941;SDS011;63506;49.346;8.798;2024-02-16T02:09:35;3.85;;;2.10;;
74941;SDS011;63506;49.346;8.798;2024-02-16T02:12:20;7.50;;;2.88;;
74941;SDS011;63506;49.346;8.798;2024-02-16T02:15:07;5.65;;;2.65;;
74941;SDS011;63506;49.346;8.798;2024-02-16T02:17:55;8.32;;;3.10;;
74941;SDS011;63506;49.346;8.798;2024-02-16T02:20:42;4.63;;;2.63;;
74941;SDS011;63506;49.346;8.798;2024-02-16T02:23:31;5.15;;;2.80;;
74941;SDS011;63506;49.346;8.798;2024-02-16T02:26:16;5.38;;;2.72;;
74941;SDS011;63506;49.346;8.798;2024-02-16T02:29:00;5.53;;;2.78;;
74941;SDS011;63506;49.346;8.798;2024-02-16T02:31:48;3.20;;;2.33;;
74941;SDS011;63506;49.346;8.798;2024-02-16T02:34:35;4.78;;;3.03;;
74941;SDS011;63506;49.346;8.798;2024-02-16T02:37:20;6.07;;;2.72;;
74941;SDS011;63506;49.346;8.798;2024-02-16T02:40:07;5.65;;;2.78;;
74941;SDS011;63506;49.346;8.798;2024-02-16T02:42:55;5.72;;;2.60;;
74941;SDS011;63506;49.346;8.798;2024-02-16T02:45:42;6.38;;;2.10;;
74941;SDS011;63506;49.346;8.798;2024-02-16T02:48:28;4.78;;;2.63;;
74941;SDS011;63506;49.346;8.798;2024-02-16T02:51:13;4.28;;;2.33;;
74941;SDS011;63506;49.346;8.798;2024-02-16T02:54:00;4.63;;;2.08;;
74941;SDS011;63506;49.346;8.798;2024-02-16T02:56:46;3.78;;;2.40;;
74941;SDS011;63506;49.346;8.798;2024-02-16T02:59:34;4.05;;;2.58;;
74941;SDS011;63506;49.346;8.798;2024-02-16T03:02:20;4.18;;;2.35;;
74941;SDS011;63506;49.346;8.798;2024-02-16T03:05:05;6.40;;;2.30;;
74941;SDS011;63506;49.346;8.798;2024-02-16T03:07:50;4.72;;;2.35;;
74941;SDS011;63506;49.346;8.798;2024-02-16T03:10:35;6.47;;;2.35;;
74941;SDS011;63506;49.346;8.798;2024-02-16T03:13:22;7.18;;;2.58;;
74941;SDS011;63506;49.346;8.798;2024-02-16T03:16:09;7.32;;;2.58;;
74941;SDS011;63506;49.346;8.798;2024-02-16T03:18:55;6.68;;;2.88;;
74941;SDS011;63506;49.346;8.798;2024-02-16T03:21:42;4.55;;;2.70;;
74941;SDS011;63506;49.346;8.798;2024-02-16T03:24:26;4.75;;;2.22;;
74941;SDS011;63506;49.346;8.798;2024-02-16T03:27:12;4.40;;;2.13;;
74941;SDS011;63506;49.346;8.798;2024-02-16T03:30:02;3.95;;;2.30;;
74941;SDS011;63506;49.346;8.798;2024-02-16T03:32:47;4.53;;;2.05;;
74941;SDS011;63506;49.346;8.798;2024-02-16T03:35:32;4.70;;;1.85;;
74941;SDS011;63506;49.346;8.798;2024-02-16T03:38:18;6.90;;;2.00;;
74941;SDS011;63506;49.346;8.798;2024-02-16T03:41:02;6.32;;;2.40;;
74941;SDS011;63506;49.346;8.798;2024-02-16T03:43:50;6.22;;;2.25;;
74941;SDS011;63506;49.346;8.798;2024-02-16T03:46:37;3.63;;;2.05;;
74941;SDS011;63506;49.346;8.798;2024-02-16T03:49:21;5.20;;;2.15;;
74941;SDS011;63506;49.346;8.798;2024-02-16T03:52:08;4.55;;;2.10;;
74941;SDS011;63506;49.346;8.798;2024-02-16T03:54:52;7.57;;;2.42;;
74941;SDS011;63506;49.346;8.798;2024-02-16T03:57:39;5.93;;;2.10;;
74941;SDS011;63506;49.346;8.798;2024-02-16T04:00:26;4.32;;;1.85;;
74941;SDS011;63506;49.346;8.798;2024-02-16T04:03:15;5.85;;;1.95;;
74941;SDS011;63506;49.346;8.798;2024-02-16T04:06:02;5.47;;;2.30;;
74941;SDS011;63506;49.346;8.798;2024-02-16T04:08:50;5.07;;;2.22;;
74941;SDS011;63506;49.346;8.798;2024-02-16T04:11:34;2.65;;;1.70;;
74941;SDS011;63506;49.346;8.798;2024-02-16T04:14:18;6.25;;;2.15;;
74941;SDS011;63506;49.346;8.798;2024-02-16T04:17:03;7.43;;;1.90;;
74941;SDS011;63506;49.346;8.798;2024-02-16T04:19:54;3.90;;;2.30;;
74941;SDS011;63506;49.346;8.798;2024-02-16T04:22:41;4.90;;;1.90;;
74941;SDS011;63506;49.346;8.798;2024-02-16T04:25:27;5.88;;;2.03;;
74941;SDS011;63506;49.346;8.798;2024-02-16T04:28:11;3.75;;;2.25;;
74941;SDS011;63506;49.346;8.798;2024-02-16T04:30:56;5.60;;;2.20;;
74941;SDS011;63506;49.346;8.798;2024-02-16T04:33:42;6.95;;;2.58;;
74941;SDS011;63506;49.346;8.798;2024-02-16T04:36:32;4.50;;;2.78;;
74941;SDS011;63506;49.346;8.798;2024-02-16T04:39:16;4.90;;;3.33;;
74941;SDS011;63506;49.346;8.798;2024-02-16T04:42:00;5.30;;;3.08;;
74941;SDS011;63506;49.346;8.798;2024-02-16T04:44:44;4.97;;;2.95;;
74941;SDS011;63506;49.346;8.798;2024-02-16T04:47:29;8.32;;;2.33;;
74941;SDS011;63506;49.346;8.798;2024-02-16T04:50:16;3.55;;;2.25;;
74941;SDS011;63506;49.346;8.798;2024-02-16T04:53:06;7.47;;;2.00;;
74941;SDS011;63506;49.346;8.798;2024-02-16T04:55:53;7.90;;;2.28;;
74941;SDS011;63506;49.346;8.798;2024-02-16T04:58:39;4.57;;;1.98;;
74941;SDS011;63506;49.346;8.798;2024-02-16T05:01:26;3.28;;;2.30;;
74941;SDS011;63506;49.346;8.798;2024-02-16T05:04:14;3.17;;;2.20;;
74941;SDS011;63506;49.346;8.798;2024-02-16T05:07:04;5.00;;;2.28;;
74941;SDS011;63506;49.346;8.798;2024-02-16T05:09:53;6.45;;;2.38;;
74941;SDS011;63506;49.346;8.798;2024-02-16T05:12:39;6.53;;;2.78;;
74941;SDS011;63506;49.346;8.798;2024-02-16T05:15:23;3.45;;;2.47;;
74941;SDS011;63506;49.346;8.798;2024-02-16T05:18:13;6.13;;;3.83;;
74941;SDS011;63506;49.346;8.798;2024-02-16T05:20:58;3.97;;;2.17;;
74941;SDS011;63506;49.346;8.798;2024-02-16T05:23:45;5.68;;;2.63;;
74941;SDS011;63506;49.346;8.798;2024-02-16T05:26:32;4.95;;;2.50;;
74941;SDS011;63506;49.346;8.798;2024-02-16T05:29:18;4.80;;;2.88;;
74941;SDS011;63506;49.346;8.798;2024-02-16T05:32:07;5.82;;;2.75;;
74941;SDS011;63506;49.346;8.798;2024-02-16T05:34:56;5.60;;;2.80;;
74941;SDS011;63506;49.346;8.798;2024-02-16T05:37:43;9.02;;;3.50;;
74941;SDS011;63506;49.346;8.798;2024-02-16T05:40:32;5.70;;;2.97;;
74941;SDS011;63506;49.346;8.798;2024-02-16T05:43:31;5.05;;;2.85;;
74941;SDS011;63506;49.346;8.798;2024-02-16T05:46:15;5.70;;;2.30;;
74941;SDS011;63506;49.346;8.798;2024-02-16T05:49:03;7.25;;;2.92;;
74941;SDS011;63506;49.346;8.798;2024-02-16T05:51:49;5.80;;;3.47;;
74941;SDS011;63506;49.346;8.798;2024-02-16T05:55:01;8.35;;;3.72;;
74941;SDS011;63506;49.346;8.798;2024-02-16T05:57:47;4.55;;;2.83;;
74941;SDS011;63506;49.346;8.798;2024-02-16T06:00:36;5.15;;;2.78;;
74941;SDS011;63506;49.346;8.798;2024-02-16T06:03:22;5.25;;;2.72;;
74941;SDS011;63506;49.346;8.798;2024-02-16T06:06:10;4.78;;;2.40;;
74941;SDS011;63506;49.346;8.798;2024-02-16T06:08:55;6.35;;;2.70;;
74941;SDS011;63506;49.346;8.798;2024-02-16T06:11:40;6.72;;;2.35;;
74941;SDS011;63506;49.346;8.798;2024-02-16T06:14:26;6.90;;;2.75;;
74941;SDS011;63506;49.346;8.798;2024-02-16T06:17:13;5.63;;;2.78;;
74941;SDS011;63506;49.346;8.798;2024-02-16T06:20:00;4.50;;;2.95;;
74941;SDS011;63506;49.346;8.798;2024-02-16T06:22:44;7.55;;;2.70;;
74941;SDS011;63506;49.346;8.798;2024-02-16T06:25:29;4.43;;;2.80;;
74941;SDS011;63506;49.346;8.798;2024-02-16T06:28:13;7.72;;;2.55;;
74941;SDS011;63506;49.346;8.798;2024-02-16T06:30:57;6.05;;;2.53;;
74941;SDS011;63506;49.346;8.798;2024-02-16T06:33:46;3.75;;;2.30;;
74941;SDS011;63506;49.346;8.798;2024-02-16T06:36:35;4.03;;;2.40;;
74941;SDS011;63506;49.346;8.798;2024-02-16T06:39:24;3.58;;;2.55;;
74941;SDS011;63506;49.346;8.798;2024-02-16T06:42:13;3.67;;;2.25;;
74941;SDS011;63506;49.346;8.798;2024-02-16T06:45:00;5.28;;;2.10;;
74941;SDS011;63506;49.346;8.798;2024-02-16T06:47:48;2.90;;;1.95;;
74941;SDS011;63506;49.346;8.798;2024-02-16T06:50:37;5.70;;;2.22;;
74941;SDS011;63506;49.346;8.798;2024-02-16T06:53:24;5.38;;;2.65;;
74941;SDS011;63506;49.346;8.798;2024-02-16T06:56:09;6.68;;;3.00;;
74941;SDS011;63506;49.346;8.798;2024-02-16T06:58:55;3.55;;;2.45;;
74941;SDS011;63506;49.346;8.798;2024-02-16T07:01:40;7.32;;;2.85;;
74941;SDS011;63506;49.346;8.798;2024-02-16T07:04:26;4.18;;;2.63;;
74941;SDS011;63506;49.346;8.798;2024-02-16T07:07:13;5.85;;;2.65;;
74941;SDS011;63506;49.346;8.798;2024-02-16T07:10:00;4.28;;;2.20;;
74941;SDS011;63506;49.346;8.798;2024-02-16T07:12:46;4.72;;;2.67;;
74941;SDS011;63506;49.346;8.798;2024-02-16T07:15:30;8.25;;;2.63;;
74941;SDS011;63506;49.346;8.798;2024-02-16T07:18:15;6.97;;;2.70;;
74941;SDS011;63506;49.346;8.798;2024-02-16T07:21:00;4.53;;;3.13;;
74941;SDS011;63506;49.346;8.798;2024-02-16T07:23:49;3.95;;;2.38;;
74941;SDS011;63506;49.346;8.798;2024-02-16T07:26:36;5.88;;;3.03;;
74941;SDS011;63506;49.346;8.798;2024-02-16T07:29:25;7.82;;;3.03;;
74941;SDS011;63506;49.346;8.798;2024-02-16T07:32:15;5.65;;;3.15;;
74941;SDS011;63506;49.346;8.798;2024-02-16T07:35:02;6.70;;;3.05;;
74941;SDS011;63506;49.346;8.798;2024-02-16T07:37:49;6.50;;;3.45;;
74941;SDS011;63506;49.346;8.798;2024-02-16T07:40:37;5.50;;;3.30;;
74941;SDS011;63506;49.346;8.798;2024-02-16T07:43:21;10.27;;;3.20;;
74941;SDS011;63506;49.346;8.798;2024-02-16T07:46:10;6.43;;;3.10;;
74941;SDS011;63506;49.346;8.798;2024-02-16T07:48:54;5.03;;;2.72;;
74941;SDS011;63506;49.346;8.798;2024-02-16T07:51:44;5.60;;;3.13;;
74941;SDS011;63506;49.346;8.798;2024-02-16T07:54:30;8.60;;;5.15;;
74941;SDS011;63506;49.346;8.798;2024-02-16T07:57:17;9.05;;;5.53;;
74941;SDS011;63506;49.346;8.798;2024-02-16T08:00:04;6.50;;;5.10;;
74941;SDS011;63506;49.346;8.798;2024-02-16T08:02:54;5.90;;;4.15;;
74941;SDS011;63506;49.346;8.798;2024-02-16T08:05:41;9.07;;;6.03;;
74941;SDS011;63506;49.346;8.798;2024-02-16T08:08:30;9.38;;;3.45;;
74941;SDS011;63506;49.346;8.798;2024-02-16T08:11:14;4.93;;;3.30;;
74941;SDS011;63506;49.346;8.798;2024-02-16T08:14:03;6.63;;;2.97;;
74941;SDS011;63506;49.346;8.798;2024-02-16T08:16:54;3.72;;;2.60;;
74941;SDS011;63506;49.346;8.798;2024-02-16T08:19:38;7.45;;;2.90;;
74941;SDS011;63506;49.346;8.798;2024-02-16T08:22:22;4.70;;;2.97;;
74941;SDS011;63506;49.346;8.798;2024-02-16T08:25:10;3.40;;;2.13;;
74941;SDS011;63506;49.346;8.798;2024-02-16T08:27:54;3.20;;;2.58;;
74941;SDS011;63506;49.346;8.798;2024-02-16T08:30:41;4.90;;;2.53;;
74941;SDS011;63506;49.346;8.798;2024-02-16T08:33:26;5.47;;;2.50;;
74941;SDS011;63506;49.346;8.798;2024-02-16T08:36:13;4.50;;;2.55;;
74941;SDS011;63506;49.346;8.798;2024-02-16T08:39:01;5.60;;;2.80;;
74941;SDS011;63506;49.346;8.798;2024-02-16T08:41:45;4.80;;;2.90;;
74941;SDS011;63506;49.346;8.798;2024-02-16T08:44:32;5.00;;;3.58;;
74941;SDS011;63506;49.346;8.798;2024-02-16T08:47:23;3.80;;;2.70;;
74941;SDS011;63506;49.346;8.798;2024-02-16T08:50:09;4.97;;;3.25;;
74941;SDS011;63506;49.346;8.798;2024-02-16T08:52:56;6.97;;;2.97;;
74941;SDS011;63506;49.346;8.798;2024-02-16T08:55:41;4.20;;;2.85;;
74941;SDS011;63506;49.346;8.798;2024-02-16T08:58:28;5.82;;;2.78;;
74941;SDS011;63506;49.346;8.798;2024-02-16T09:01:16;4.43;;;2.88;;
74941;SDS011;63506;49.346;8.798;2024-02-16T09:04:03;4.32;;;2.90;;
74941;SDS011;63506;49.346;8.798;2024-02-16T09:06:47;5.70;;;2.72;;
74941;SDS011;63506;49.346;8.798;2024-02-16T09:09:32;6.70;;;3.10;;
74941;SDS011;63506;49.346;8.798;2024-02-16T09:12:18;6.65;;;3.00;;
74941;SDS011;63506;49.346;8.798;2024-02-16T09:15:06;4.78;;;3.05;;
74941;SDS011;63506;49.346;8.798;2024-02-16T09:17:53;6.45;;;4.15;;
74941;SDS011;63506;49.346;8.798;2024-02-16T09:20:40;5.20;;;2.97;;
74941;SDS011;63506;49.346;8.798;2024-02-16T09:23:25;3.85;;;2.60;;
74941;SDS011;63506;49.346;8.798;2024-02-16T09:26:12;5.63;;;3.30;;
74941;SDS011;63506;49.346;8.798;2024-02-16T09:29:02;6.22;;;3.50;;
74941;SDS011;63506;49.346;8.798;2024-02-16T09:31:50;7.13;;;2.90;;
74941;SDS011;63506;49.346;8.798;2024-02-16T09:34:40;7.25;;;2.83;;
74941;SDS011;63506;49.346;8.798;2024-02-16T09:37:34;4.07;;;2.50;;
74941;SDS011;63506;49.346;8.798;2024-02-16T09:40:18;3.75;;;2.55;;
74941;SDS011;63506;49.346;8.798;2024-02-16T09:46:02;4.45;;;2.78;;
74941;SDS011;63506;49.346;8.798;2024-02-16T09:48:56;5.10;;;2.90;;
74941;SDS011;63506;49.346;8.798;2024-02-16T09:51:44;4.82;;;3.13;;
74941;SDS011;63506;49.346;8.798;2024-02-16T09:54:34;4.80;;;3.13;;
74941;SDS011;63506;49.346;8.798;2024-02-16T09:57:19;6.45;;;3.40;;
74941;SDS011;63506;49.346;8.798;2024-02-16T10:00:04;5.50;;;4.25;;
74941;SDS011;63506;49.346;8.798;2024-02-16T10:02:56;10.48;;;3.85;;
74941;SDS011;63506;49.346;8.798;2024-02-16T10:05:40;11.93;;;4.45;;
74941;SDS011;63506;49.346;8.798;2024-02-16T10:08:24;8.70;;;4.10;;
74941;SDS011;63506;49.346;8.798;2024-02-16T10:11:12;8.25;;;3.80;;
74941;SDS011;63506;49.346;8.798;2024-02-16T10:13:57;5.88;;;3.83;;
74941;SDS011;63506;49.346;8.798;2024-02-16T10:16:42;4.25;;;3.22;;
74941;SDS011;63506;49.346;8.798;2024-02-16T10:19:27;7.65;;;3.95;;
74941;SDS011;63506;49.346;8.798;2024-02-16T10:22:18;6.00;;;3.20;;
74941;SDS011;63506;49.346;8.798;2024-02-16T10:25:06;5.68;;;3.17;;
74941;SDS011;63506;49.346;8.798;2024-02-16T10:30:41;8.70;;;2.90;;
74941;SDS011;63506;49.346;8.798;2024-02-16T10:33:29;7.35;;;3.35;;
74941;SDS011;63506;49.346;8.798;2024-02-16T10:36:13;6.07;;;3.40;;
74941;SDS011;63506;49.346;8.798;2024-02-16T10:38:58;5.32;;;3.38;;
74941;SDS011;63506;49.346;8.798;2024-02-16T10:41:45;4.15;;;2.90;;
74941;SDS011;63506;49.346;8.798;2024-02-16T10:44:35;6.05;;;3.03;;
74941;SDS011;63506;49.346;8.798;2024-02-16T10:47:21;9.20;;;2.70;;
74941;SDS011;63506;49.346;8.798;2024-02-16T10:50:06;6.35;;;3.17;;
74941;SDS011;63506;49.346;8.798;2024-02-16T10:52:51;5.35;;;3.22;;
74941;SDS011;63506;49.346;8.798;2024-02-16T10:55:37;4.85;;;2.65;;
74941;SDS011;63506;49.346;8.798;2024-02-16T10:58:22;6.57;;;2.65;;
74941;SDS011;63506;49.346;8.798;2024-02-16T11:01:14;4.20;;;2.83;;
74941;SDS011;63506;49.346;8.798;2024-02-16T11:04:03;5.22;;;2.75;;
74941;SDS011;63506;49.346;8.798;2024-02-16T11:06:51;5.32;;;2.83;;
74941;SDS011;63506;49.346;8.798;2024-02-16T11:09:41;3.95;;;2.40;;
74941;SDS011;63506;49.346;8.798;2024-02-16T11:12:27;4.38;;;2.50;;
74941;SDS011;63506;49.346;8.798;2024-02-16T11:15:27;4.47;;;2.50;;
74941;SDS011;63506;49.346;8.798;2024-02-16T11:18:14;3.38;;;2.60;;
74941;SDS011;63506;49.346;8.798;2024-02-16T11:21:01;5.80;;;3.40;;
74941;SDS011;63506;49.346;8.798;2024-02-16T11:23:50;10.30;;;4.03;;
74941;SDS011;63506;49.346;8.798;2024-02-16T11:26:41;6.68;;;3.20;;
74941;SDS011;63506;49.346;8.798;2024-02-16T11:29:32;6.25;;;2.80;;
74941;SDS011;63506;49.346;8.798;2024-02-16T11:32:19;4.10;;;2.63;;
74941;SDS011;63506;49.346;8.798;2024-02-16T11:35:08;4.07;;;2.25;;
74941;SDS011;63506;49.346;8.798;2024-02-16T11:37:57;4.70;;;2.37;;
74941;SDS011;63506;49.346;8.798;2024-02-16T12:44:50;3.20;;;2.33;;
74941;SDS011;63506;49.346;8.798;2024-02-16T12:47:34;5.32;;;1.95;;
74941;SDS011;63506;49.346;8.798;2024-02-16T12:50:18;3.85;;;2.08;;
74941;SDS011;63506;49.346;8.798;2024-02-16T12:53:05;3.65;;;1.83;;
74941;SDS011;63506;49.346;8.798;2024-02-16T12:55:52;4.97;;;2.03;;
74941;SDS011;63506;49.346;8.798;2024-02-16T12:58:41;3.30;;;1.60;;
74941;SDS011;63506;49.346;8.798;2024-02-16T13:01:27;5.00;;;2.05;;
74941;SDS011;63506;49.346;8.798;2024-02-16T13:04:14;7.03;;;2.05;;
74941;SDS011;63506;49.346;8.798;2024-02-16T13:09:55;4.13;;;1.58;;
74941;SDS011;63506;49.346;8.798;2024-02-16T13:12:53;5.07;;;1.65;;
74941;SDS011;63506;49.346;8.798;2024-02-16T13:18:43;6.55;;;1.80;;
74941;SDS011;63506;49.346;8.798;2024-02-16T13:21:42;2.63;;;1.70;;
74941;SDS011;63506;49.346;8.798;2024-02-16T13:24:32;4.40;;;1.92;;
74941;SDS011;63506;49.346;8.798;2024-02-16T13:27:23;10.35;;;1.73;;
74941;SDS011;63506;49.346;8.798;2024-02-16T13:30:10;3.88;;;2.20;;
74941;SDS011;63506;49.346;8.798;2024-02-16T13:33:00;3.55;;;1.67;;
74941;SDS011;63506;49.346;8.798;2024-02-16T13:35:47;4.32;;;2.08;;
74941;SDS011;63506;49.346;8.798;2024-02-16T13:38:31;4.35;;;2.38;;
74941;SDS011;63506;49.346;8.798;2024-02-16T13:44:05;3.05;;;1.88;;
74941;SDS011;63506;49.346;8.798;2024-02-16T13:46:52;3.53;;;1.73;;
74941;SDS011;63506;49.346;8.798;2024-02-16T13:49:41;4.45;;;1.83;;
74941;SDS011;63506;49.346;8.798;2024-02-16T13:52:27;5.38;;;1.90;;
74941;SDS011;63506;49.346;8.798;2024-02-16T13:55:14;7.60;;;1.80;;
74941;SDS011;63506;49.346;8.798;2024-02-16T13:57:59;3.33;;;1.58;;
74941;SDS011;63506;49.346;8.798;2024-02-16T14:00:43;4.50;;;1.80;;
74941;SDS011;63506;49.346;8.798;2024-02-16T14:03:27;6.28;;;1.60;;
74941;SDS011;63506;49.346;8.798;2024-02-16T14:06:16;3.47;;;1.50;;
74941;SDS011;63506;49.346;8.798;2024-02-16T14:11:52;5.43;;;1.77;;
74941;SDS011;63506;49.346;8.798;2024-02-16T14:14:39;2.33;;;1.42;;
74941;SDS011;63506;49.346;8.798;2024-02-16T14:17:26;3.20;;;1.58;;
74941;SDS011;63506;49.346;8.798;2024-02-16T14:20:13;6.35;;;1.63;;
74941;SDS011;63506;49.346;8.798;2024-02-16T14:23:02;3.67;;;1.60;;
74941;SDS011;63506;49.346;8.798;2024-02-16T14:25:51;5.25;;;1.55;;
74941;SDS011;63506;49.346;8.798;2024-02-16T14:28:38;2.85;;;1.88;;
74941;SDS011;63506;49.346;8.798;2024-02-16T14:31:22;5.47;;;1.40;;
74941;SDS011;63506;49.346;8.798;2024-02-16T14:34:06;3.55;;;1.50;;
74941;SDS011;63506;49.346;8.798;2024-02-16T14:36:51;3.80;;;1.83;;
74941;SDS011;63506;49.346;8.798;2024-02-16T14:39:38;3.53;;;1.33;;
74941;SDS011;63506;49.346;8.798;2024-02-16T14:42:24;5.20;;;1.35;;
74941;SDS011;63506;49.346;8.798;2024-02-16T14:45:18;4.38;;;1.27;;
74941;SDS011;63506;49.346;8.798;2024-02-16T14:48:05;4.05;;;1.10;;
74941;SDS011;63506;49.346;8.798;2024-02-16T14:50:52;3.33;;;1.15;;
74941;SDS011;63506;49.346;8.798;2024-02-16T14:53:38;4.03;;;1.27;;
74941;SDS011;63506;49.346;8.798;2024-02-16T14:56:25;3.03;;;0.95;;
74941;SDS011;63506;49.346;8.798;2024-02-16T14:59:10;2.63;;;1.40;;
74941;SDS011;63506;49.346;8.798;2024-02-16T15:01:56;2.50;;;1.17;;
74941;SDS011;63506;49.346;8.798;2024-02-16T15:04:42;1.98;;;1.20;;
74941;SDS011;63506;49.346;8.798;2024-02-16T15:07:29;1.25;;;0.90;;
74941;SDS011;63506;49.346;8.798;2024-02-16T15:10:13;3.53;;;1.33;;
74941;SDS011;63506;49.346;8.798;2024-02-16T15:13:02;2.38;;;1.17;;
74941;SDS011;63506;49.346;8.798;2024-02-16T15:15:46;2.70;;;1.10;;
74941;SDS011;63506;49.346;8.798;2024-02-16T15:18:33;3.97;;;1.35;;
74941;SDS011;63506;49.346;8.798;2024-02-16T15:21:20;4.93;;;1.40;;
74941;SDS011;63506;49.346;8.798;2024-02-16T15:24:13;3.33;;;1.20;;
74941;SDS011;63506;49.346;8.798;2024-02-16T15:27:04;4.30;;;1.70;;
74941;SDS011;63506;49.346;8.798;2024-02-16T15:30:10;2.13;;;1.10;;
74941;SDS011;63506;49.346;8.798;2024-02-16T15:33:01;5.53;;;1.20;;
74941;SDS011;63506;49.346;8.798;2024-02-16T15:36:14;1.83;;;0.93;;
74941;SDS011;63506;49.346;8.798;2024-02-16T15:39:08;3.65;;;1.10;;
74941;SDS011;63506;49.346;8.798;2024-02-16T15:41:57;4.78;;;1.35;;
74941;SDS011;63506;49.346;8.798;2024-02-16T15:44:44;2.90;;;1.52;;
74941;SDS011;63506;49.346;8.798;2024-02-16T15:47:31;2.58;;;1.23;;
74941;SDS011;63506;49.346;8.798;2024-02-16T15:50:15;3.15;;;1.15;;
74941;SDS011;63506;49.346;8.798;2024-02-16T15:53:02;2.33;;;0.98;;
74941;SDS011;63506;49.346;8.798;2024-02-16T15:55:49;3.08;;;1.50;;
74941;SDS011;63506;49.346;8.798;2024-02-16T15:58:36;4.18;;;2.38;;
74941;SDS011;63506;49.346;8.798;2024-02-16T16:01:22;4.05;;;1.60;;
74941;SDS011;63506;49.346;8.798;2024-02-16T16:04:09;6.43;;;1.63;;
74941;SDS011;63506;49.346;8.798;2024-02-16T16:06:56;3.60;;;1.45;;
74941;SDS011;63506;49.346;8.798;2024-02-16T16:09:45;3.30;;;1.77;;
74941;SDS011;63506;49.346;8.798;2024-02-16T16:12:30;3.25;;;1.52;;
74941;SDS011;63506;49.346;8.798;2024-02-16T16:15:16;6.65;;;1.90;;
74941;SDS011;63506;49.346;8.798;2024-02-16T16:18:03;3.72;;;2.03;;
74941;SDS011;63506;49.346;8.798;2024-02-16T16:20:53;5.63;;;1.90;;
74941;SDS011;63506;49.346;8.798;2024-02-16T16:23:37;6.93;;;2.45;;
74941;SDS011;63506;49.346;8.798;2024-02-16T16:26:24;8.10;;;1.63;;
74941;SDS011;63506;49.346;8.798;2024-02-16T16:29:11;4.68;;;1.90;;
74941;SDS011;63506;49.346;8.798;2024-02-16T16:31:56;2.33;;;1.55;;
74941;SDS011;63506;49.346;8.798;2024-02-16T16:34:43;3.67;;;1.33;;
74941;SDS011;63506;49.346;8.798;2024-02-16T16:37:30;3.22;;;1.50;;
74941;SDS011;63506;49.346;8.798;2024-02-16T16:40:14;3.08;;;1.52;;
74941;SDS011;63506;49.346;8.798;2024-02-16T16:43:01;5.43;;;1.80;;
74941;SDS011;63506;49.346;8.798;2024-02-16T16:45:48;2.97;;;1.52;;
74941;SDS011;63506;49.346;8.798;2024-02-16T16:48:32;3.67;;;2.35;;
74941;SDS011;63506;49.346;8.798;2024-02-16T16:51:21;5.35;;;1.70;;
74941;SDS011;63506;49.346;8.798;2024-02-16T16:54:08;4.95;;;2.10;;
74941;SDS011;63506;49.346;8.798;2024-02-16T16:56:58;3.58;;;1.60;;
74941;SDS011;63506;49.346;8.798;2024-02-16T16:59:44;5.97;;;1.65;;
74941;SDS011;63506;49.346;8.798;2024-02-16T17:02:28;4.65;;;1.98;;
74941;SDS011;63506;49.346;8.798;2024-02-16T17:05:14;2.58;;;2.13;;
74941;SDS011;63506;49.346;8.798;2024-02-16T17:08:03;5.70;;;1.70;;
74941;SDS011;63506;49.346;8.798;2024-02-16T17:10:53;6.10;;;2.03;;
74941;SDS011;63506;49.346;8.798;2024-02-16T17:13:37;5.68;;;2.15;;
74941;SDS011;63506;49.346;8.798;2024-02-16T17:16:25;3.42;;;1.70;;
74941;SDS011;63506;49.346;8.798;2024-02-16T17:19:11;3.63;;;1.95;;
74941;SDS011;63506;49.346;8.798;2024-02-16T17:21:56;4.80;;;2.70;;
74941;SDS011;63506;49.346;8.798;2024-02-16T17:24:42;4.97;;;2.33;;
74941;SDS011;63506;49.346;8.798;2024-02-16T17:27:32;4.80;;;1.83;;
74941;SDS011;63506;49.346;8.798;2024-02-16T17:30:18;3.55;;;1.70;;
74941;SDS011;63506;49.346;8.798;2024-02-16T17:33:03;2.75;;;1.80;;
74941;SDS011;63506;49.346;8.798;2024-02-16T17:35:48;3.75;;;1.60;;
74941;SDS011;63506;49.346;8.798;2024-02-16T17:38:34;8.25;;;2.15;;
74941;SDS011;63506;49.346;8.798;2024-02-16T17:41:21;3.45;;;2.00;;
74941;SDS011;63506;49.346;8.798;2024-02-16T17:44:10;5.03;;;1.90;;
74941;SDS011;63506;49.346;8.798;2024-02-16T17:46:59;2.75;;;1.83;;
74941;SDS011;63506;49.346;8.798;2024-02-16T17:49:46;4.18;;;1.75;;
74941;SDS011;63506;49.346;8.798;2024-02-16T17:52:30;3.83;;;2.28;;
74941;SDS011;63506;49.346;8.798;2024-02-16T17:55:17;4.05;;;2.08;;
74941;SDS011;63506;49.346;8.798;2024-02-16T17:58:04;5.60;;;2.45;;
74941;SDS011;63506;49.346;8.798;2024-02-16T18:00:53;4.95;;;2.50;;
74941;SDS011;63506;49.346;8.798;2024-02-16T18:03:42;6.13;;;2.30;;
74941;SDS011;63506;49.346;8.798;2024-02-16T18:06:27;6.65;;;2.75;;
74941;SDS011;63506;49.346;8.798;2024-02-16T18:09:16;5.68;;;2.55;;